RAF Lossiemouth

EGQS · Scotland, 英国

罗盘
风向 的 风向 的 风向 到 风向 190° RAF Lossiemouth 5/23
风: 7 kt, 3 beaufort

6 kt

4 kt
改变
0 1.000 2.000 3.000 4.000 5.000
FEW 800 ft
BKN 4.000 ft
METAR EGPC 030820Z 19007KT 140V250 9999 FEW008 BKN040 12/10 Q1019

METAR RAF Lossiemouth - EGQS/LMO

RAF Lossiemouth是Lossiemouth,英国中的中型机场。 该机场有2条跑道: 5/23 和 10/28. 该领域的国际民航组织标志是EGQS 它的国际航空运输协会代码是LMO.

这份报告是针对2022年10月3日 09:20, 当地时间在Wick Airport进行的。

机场观察

风向为190°,速度为7 kt。 风向在140°和250°之间变化。

可见度为10 km 或者更多。

有几云在800 ft的高度 和 碎云在4.000 ft的高度。 破损或更高的上限为4.000 ft。

温度和风寒是12 °C。 露点为10 °C,相对湿度为88%。 海平面上的气压为1019 hPa (QNH)。

白天

今天,太阳从07:21升起,在18:42降落。 这适用于RAF Lossiemouth,世界夏令时可能有所不同。 当地时间与世界标准时间之间的时差为+1 小时。 夏令时目前正在进行中。

公司介绍

在这个机场,你可以找到飞行俱乐部 和 飞行学校。 本场上唯一已知的公司是Moray Flying Club。

体会

到Vliegles.nl去找飞行课程,跳伞和其他飞行体验。 浏览页面,了解RAF Lossiemouth附近所有可用的活动。 你也可以使用搜索功能来寻找你所在地附近的特定飞行课程、跳伞或其他飞行体验。

跑道

Id 标题 侧风 逆风 侧风 %
5/23 044°-224° 4 kt 6 kt 56 %
10/28 096°-276° 7 kt 100 %

逆风成分最大的方向会被突出显示,并用于横风计算。 这并不一定意味着这个方向在使用。

乌云

800 ft FEW 几云
4.000 ft BKN 碎云

温度 & 天气

温度 12 °C
露点 10 °C
相对湿度 88%
Kp-index 3 (0-9)

白天

日出
07:21
中午
13:01
日落
18:41 (9h 08m)

小工具

你想在你的网站上有一个关于RAF Lossiemouth的当前航空天气(METAR)的小部件吗?

</> 显示HTML代码

我们和第三方通过cookies跟踪您在我们网站上的上网行为。如果您继续,我们认为您同意我们的cookie政策。 了解更多